Fort Hood, Texas
Current Conditions -  °F | °C
As of 9:58 AM on Saturday 20 Dec 2014 (Local Time) from KHLR Reporting Station
Overcast Overcast  
Wind Chill: 44°   Ceiling: 2200
Heat Index: 47°   Visibility: 10mi
Dew Point: 44°   Wind: 7mph
Humidity: 88%   Direction: 320°NW
Pressure: 30.24"   Gusts: NA
Location:  31.2151°N, 97.7405°W
Report Text: KHLR 201558Z AUTO 32006KT 10SM OVC022 09/07 A3024 RMK AO2 SLP241 T00850066
Loading
Personal Weather Stations






























Interactive Weather Map New forecast layout! Learn more

10-Day Weather Forecast

Advertisements
Track Severe Weather on mobile